SWA3291 KLAS-KSMF
Flight info
| Callsign | SWA3291 |
|---|---|
| Flight time | 1h 3m |
| Altitude | 38000 |
| Route | JOHKR5 KENNO DONNR SLMMR5 |
| Aircraft | B737/M-SADE2E3GIJ4RWZ/LB1D1 |
Departure
| Time | 2026-05-04 20:54 |
|---|---|
| Airport | Harry Reid International Airport (KLAS) |
Arrival
| Time | 2026-05-04 21:58 |
|---|---|
| Airport | Sacramento International Airport (KSMF) |
| Time | Latitude | Longitude | Altitude | Speed | Heading |
|---|---|---|---|---|---|
| 2026-05-04 20:34 | 36.08287 | -115.15029 | 2115 ft | 0 kts | 259° |
| 2026-05-04 20:43 | 36.08289 | -115.15017 | 2114 ft | 4 kts | 251° |
| 2026-05-04 20:43 | 36.08301 | -115.14993 | 2115 ft | 4 kts | 195° |
| 2026-05-04 20:43 | 36.08317 | -115.14995 | 2118 ft | 0 kts | 142° |
| 2026-05-04 20:46 | 36.08314 | -115.14992 | 2118 ft | 4 kts | 142° |
| 2026-05-04 20:46 | 36.08250 | -115.14959 | 2112 ft | 15 kts | 195° |
| 2026-05-04 20:47 | 36.08171 | -115.15038 | 2115 ft | 14 kts | 224° |
| 2026-05-04 20:47 | 36.08106 | -115.15128 | 2120 ft | 14 kts | 242° |
| 2026-05-04 20:47 | 36.08101 | -115.15246 | 2124 ft | 15 kts | 285° |
| 2026-05-04 20:47 | 36.08124 | -115.15367 | 2126 ft | 14 kts | 280° |
| 2026-05-04 20:48 | 36.08158 | -115.15478 | 2129 ft | 14 kts | 310° |
| 2026-05-04 20:48 | 36.08242 | -115.15537 | 2128 ft | 14 kts | 331° |
| 2026-05-04 20:48 | 36.08331 | -115.15591 | 2124 ft | 14 kts | 334° |
| 2026-05-04 20:48 | 36.08418 | -115.15641 | 2124 ft | 13 kts | 335° |
| 2026-05-04 20:49 | 36.08501 | -115.15688 | 2121 ft | 13 kts | 335° |
| 2026-05-04 20:49 | 36.08581 | -115.15734 | 2119 ft | 13 kts | 335° |
| 2026-05-04 20:49 | 36.08660 | -115.15780 | 2118 ft | 12 kts | 335° |
| 2026-05-04 20:49 | 36.08742 | -115.15772 | 2115 ft | 13 kts | 24° |
| 2026-05-04 20:50 | 36.08829 | -115.15724 | 2112 ft | 13 kts | 24° |
| 2026-05-04 20:50 | 36.08914 | -115.15676 | 2110 ft | 14 kts | 24° |
| 2026-05-04 20:50 | 36.09010 | -115.15621 | 2104 ft | 16 kts | 25° |
| 2026-05-04 20:50 | 36.09107 | -115.15564 | 2104 ft | 15 kts | 25° |
| 2026-05-04 20:51 | 36.09200 | -115.15510 | 2102 ft | 14 kts | 25° |
| 2026-05-04 20:51 | 36.09289 | -115.15458 | 2099 ft | 14 kts | 25° |
| 2026-05-04 20:51 | 36.09375 | -115.15409 | 2099 ft | 13 kts | 25° |
| 2026-05-04 20:51 | 36.09468 | -115.15356 | 2096 ft | 18 kts | 25° |
| 2026-05-04 20:52 | 36.09602 | -115.15279 | 2089 ft | 24 kts | 25° |
| 2026-05-04 20:52 | 36.09732 | -115.15206 | 2083 ft | 10 kts | 21° |
| 2026-05-04 20:52 | 36.09795 | -115.15224 | 2081 ft | 10 kts | 307° |
| 2026-05-04 20:52 | 36.09825 | -115.15304 | 2083 ft | 10 kts | 294° |
| 2026-05-04 20:53 | 36.09833 | -115.15372 | 2084 ft | 6 kts | 226° |
| 2026-05-04 20:53 | 36.09813 | -115.15383 | 2085 ft | 0 kts | 203° |
| 2026-05-04 20:53 | 36.09668 | -115.15465 | 2088 ft | 59 kts | 204° |
| 2026-05-04 20:53 | 36.09086 | -115.15799 | 2107 ft | 123 kts | 205° |
| 2026-05-04 20:54 | 36.08186 | -115.16315 | 2381 ft | 151 kts | 202° |
| 2026-05-04 20:54 | 36.07297 | -115.16821 | 3370 ft | 143 kts | 209° |
| 2026-05-04 20:54 | 36.06364 | -115.17372 | 3971 ft | 154 kts | 208° |
| 2026-05-04 20:54 | 36.05292 | -115.18014 | 4249 ft | 184 kts | 208° |
| 2026-05-04 20:55 | 36.04055 | -115.18755 | 4544 ft | 214 kts | 208° |
| 2026-05-04 20:55 | 36.02599 | -115.19623 | 4822 ft | 246 kts | 207° |
| 2026-05-04 20:55 | 36.01035 | -115.20550 | 5643 ft | 253 kts | 207° |
| 2026-05-04 20:55 | 35.99391 | -115.21401 | 6556 ft | 256 kts | 201° |
| 2026-05-04 20:56 | 35.97725 | -115.22146 | 7658 ft | 256 kts | 206° |
| 2026-05-04 20:56 | 35.96330 | -115.23485 | 8612 ft | 262 kts | 225° |
| 2026-05-04 20:56 | 35.95120 | -115.25174 | 9735 ft | 264 kts | 226° |
| 2026-05-04 20:56 | 35.93910 | -115.26900 | 10545 ft | 269 kts | 226° |
| 2026-05-04 20:57 | 35.92744 | -115.28713 | 11018 ft | 270 kts | 232° |
| 2026-05-04 20:57 | 35.91667 | -115.30655 | 11867 ft | 277 kts | 233° |
| 2026-05-04 20:57 | 35.90584 | -115.32628 | 12904 ft | 279 kts | 234° |
| 2026-05-04 20:57 | 35.89481 | -115.34616 | 13938 ft | 281 kts | 234° |
| 2026-05-04 20:58 | 35.88665 | -115.36808 | 14898 ft | 286 kts | 253° |
| 2026-05-04 20:58 | 35.88460 | -115.39223 | 15909 ft | 290 kts | 265° |
| 2026-05-04 20:58 | 35.88502 | -115.41722 | 16938 ft | 292 kts | 267° |
| 2026-05-04 20:58 | 35.88585 | -115.44228 | 18015 ft | 293 kts | 267° |
| 2026-05-04 20:59 | 35.88663 | -115.46737 | 18914 ft | 294 kts | 267° |
| 2026-05-04 20:59 | 35.88728 | -115.49264 | 19792 ft | 295 kts | 267° |
| 2026-05-04 20:59 | 35.88783 | -115.51804 | 20685 ft | 298 kts | 266° |
| 2026-05-04 20:59 | 35.88835 | -115.54366 | 21597 ft | 300 kts | 266° |
| 2026-05-04 21:00 | 35.88885 | -115.56946 | 22505 ft | 302 kts | 266° |
| 2026-05-04 21:00 | 35.88932 | -115.59501 | 23444 ft | 302 kts | 266° |
| 2026-05-04 21:00 | 35.88982 | -115.62101 | 24198 ft | 304 kts | 266° |
| 2026-05-04 21:00 | 35.89031 | -115.64711 | 24990 ft | 305 kts | 265° |
| 2026-05-04 21:01 | 35.89081 | -115.67329 | 25762 ft | 306 kts | 264° |
| 2026-05-04 21:01 | 35.89126 | -115.69989 | 26149 ft | 319 kts | 264° |
| 2026-05-04 21:01 | 35.89170 | -115.72808 | 26281 ft | 338 kts | 264° |
| 2026-05-04 21:01 | 35.89220 | -115.75776 | 26398 ft | 355 kts | 264° |
| 2026-05-04 21:02 | 35.89276 | -115.78874 | 26648 ft | 366 kts | 265° |
| 2026-05-04 21:02 | 35.89337 | -115.82030 | 27174 ft | 369 kts | 264° |
| 2026-05-04 21:02 | 35.89395 | -115.85146 | 27820 ft | 368 kts | 264° |
| 2026-05-04 21:02 | 35.89451 | -115.88302 | 28453 ft | 368 kts | 264° |
| 2026-05-04 21:03 | 35.89807 | -115.91482 | 28964 ft | 385 kts | 276° |
| 2026-05-04 21:03 | 35.90807 | -115.94614 | 29505 ft | 402 kts | 285° |
| 2026-05-04 21:03 | 35.92410 | -115.97562 | 29892 ft | 429 kts | 298° |
| 2026-05-04 21:03 | 35.94509 | -116.00260 | 30285 ft | 440 kts | 302° |
| 2026-05-04 21:04 | 35.96710 | -116.02920 | 30637 ft | 444 kts | 303° |
| 2026-05-04 21:04 | 35.98926 | -116.05571 | 31090 ft | 444 kts | 303° |
| 2026-05-04 21:04 | 36.01159 | -116.08202 | 31605 ft | 443 kts | 302° |
| 2026-05-04 21:04 | 36.03310 | -116.10801 | 32255 ft | 434 kts | 299° |
| 2026-05-04 21:05 | 36.05422 | -116.13451 | 32831 ft | 432 kts | 299° |
| 2026-05-04 21:05 | 36.07546 | -116.16090 | 33300 ft | 432 kts | 298° |
| 2026-05-04 21:05 | 36.09668 | -116.18716 | 33803 ft | 431 kts | 298° |
| 2026-05-04 21:05 | 36.11783 | -116.21330 | 34289 ft | 428 kts | 298° |
| 2026-05-04 21:06 | 36.13885 | -116.23933 | 34715 ft | 427 kts | 299° |
| 2026-05-04 21:06 | 36.15984 | -116.26543 | 35057 ft | 428 kts | 300° |
| 2026-05-04 21:06 | 36.18093 | -116.29173 | 35265 ft | 432 kts | 300° |
| 2026-05-04 21:06 | 36.20187 | -116.31782 | 35588 ft | 432 kts | 300° |
| 2026-05-04 21:07 | 36.22303 | -116.34411 | 36033 ft | 430 kts | 301° |
| 2026-05-04 21:07 | 36.24406 | -116.37026 | 36426 ft | 428 kts | 301° |
| 2026-05-04 21:07 | 36.26503 | -116.39641 | 36736 ft | 428 kts | 301° |
| 2026-05-04 21:07 | 36.28598 | -116.42256 | 37032 ft | 429 kts | 301° |
| 2026-05-04 21:08 | 36.30741 | -116.44850 | 37297 ft | 432 kts | 303° |
| 2026-05-04 21:08 | 36.32926 | -116.47439 | 37460 ft | 436 kts | 303° |
| 2026-05-04 21:08 | 36.35122 | -116.50024 | 37733 ft | 434 kts | 303° |
| 2026-05-04 21:08 | 36.37287 | -116.52623 | 37748 ft | 434 kts | 303° |
| 2026-05-04 21:09 | 36.41630 | -116.57750 | 37778 ft | 435 kts | 304° |
| 2026-05-04 21:09 | 36.46033 | -116.62964 | 37776 ft | 441 kts | 306° |
| 2026-05-04 21:10 | 36.50615 | -116.68128 | 37784 ft | 446 kts | 307° |
| 2026-05-04 21:10 | 36.55228 | -116.73356 | 37762 ft | 451 kts | 307° |
| 2026-05-04 21:11 | 36.59817 | -116.78584 | 37740 ft | 447 kts | 307° |
| 2026-05-04 21:11 | 36.64366 | -116.83773 | 37770 ft | 442 kts | 308° |
| 2026-05-04 21:12 | 36.68903 | -116.88970 | 37753 ft | 444 kts | 309° |
| 2026-05-04 21:12 | 36.73479 | -116.94173 | 37744 ft | 449 kts | 313° |
| 2026-05-04 21:13 | 36.76161 | -116.96295 | 37758 ft | 462 kts | 323° |
| 2026-05-04 21:13 | 36.78985 | -116.98110 | 37741 ft | 465 kts | 325° |
| 2026-05-04 21:13 | 36.84784 | -117.01710 | 37745 ft | 466 kts | 325° |
| 2026-05-04 21:14 | 36.90558 | -117.05377 | 37725 ft | 465 kts | 325° |
| 2026-05-04 21:14 | 36.96299 | -117.09092 | 37743 ft | 465 kts | 325° |
| 2026-05-04 21:15 | 37.02007 | -117.12818 | 37758 ft | 467 kts | 325° |
| 2026-05-04 21:15 | 37.07782 | -117.16591 | 37748 ft | 469 kts | 325° |
| 2026-05-04 21:16 | 37.13575 | -117.20375 | 37739 ft | 471 kts | 325° |
| 2026-05-04 21:16 | 37.19400 | -117.24187 | 37759 ft | 472 kts | 325° |
| 2026-05-04 21:17 | 37.25198 | -117.27989 | 37740 ft | 474 kts | 325° |
| 2026-05-04 21:17 | 37.30752 | -117.32285 | 37714 ft | 457 kts | 307° |
| 2026-05-04 21:18 | 37.34791 | -117.38311 | 37734 ft | 450 kts | 301° |
| 2026-05-04 21:18 | 37.38709 | -117.44458 | 37726 ft | 451 kts | 301° |
| 2026-05-04 21:19 | 37.42643 | -117.50545 | 37729 ft | 452 kts | 302° |
| 2026-05-04 21:19 | 37.46628 | -117.56648 | 37719 ft | 451 kts | 302° |
| 2026-05-04 21:20 | 37.50619 | -117.62754 | 37723 ft | 452 kts | 302° |
| 2026-05-04 21:20 | 37.54605 | -117.68867 | 37724 ft | 452 kts | 301° |
| 2026-05-04 21:21 | 37.58564 | -117.74951 | 37718 ft | 450 kts | 301° |
| 2026-05-04 21:21 | 37.62508 | -117.81024 | 37731 ft | 448 kts | 301° |
| 2026-05-04 21:22 | 37.66452 | -117.87113 | 37738 ft | 448 kts | 301° |
| 2026-05-04 21:22 | 37.70390 | -117.93200 | 37734 ft | 449 kts | 301° |
| 2026-05-04 21:23 | 37.74258 | -117.99373 | 37724 ft | 446 kts | 298° |
| 2026-05-04 21:23 | 37.77842 | -118.05700 | 37721 ft | 445 kts | 297° |
| 2026-05-04 21:24 | 37.81410 | -118.12115 | 37739 ft | 446 kts | 297° |
| 2026-05-04 21:24 | 37.85007 | -118.18531 | 37743 ft | 447 kts | 297° |
| 2026-05-04 21:25 | 37.88624 | -118.24945 | 37756 ft | 448 kts | 297° |
| 2026-05-04 21:25 | 37.92225 | -118.31330 | 37768 ft | 450 kts | 297° |
| 2026-05-04 21:26 | 37.95858 | -118.37782 | 37791 ft | 450 kts | 297° |
| 2026-05-04 21:26 | 37.99492 | -118.44249 | 37779 ft | 450 kts | 297° |
| 2026-05-04 21:27 | 38.03104 | -118.50687 | 37799 ft | 446 kts | 297° |
| 2026-05-04 21:27 | 38.06669 | -118.57056 | 37796 ft | 445 kts | 297° |
| 2026-05-04 21:28 | 38.10248 | -118.63468 | 37823 ft | 445 kts | 298° |
| 2026-05-04 21:28 | 38.13824 | -118.69885 | 37809 ft | 446 kts | 298° |
| 2026-05-04 21:29 | 38.17404 | -118.76324 | 37812 ft | 446 kts | 298° |
| 2026-05-04 21:29 | 38.20988 | -118.82782 | 37806 ft | 447 kts | 298° |
| 2026-05-04 21:30 | 38.24545 | -118.89200 | 37817 ft | 447 kts | 298° |
| 2026-05-04 21:30 | 38.28125 | -118.95674 | 37817 ft | 447 kts | 298° |
| 2026-05-04 21:31 | 38.33485 | -119.05388 | 37837 ft | 447 kts | 299° |
| 2026-05-04 21:32 | 38.37052 | -119.11870 | 37813 ft | 446 kts | 299° |
| 2026-05-04 21:32 | 38.40588 | -119.18307 | 37828 ft | 447 kts | 299° |
| 2026-05-04 21:33 | 38.44152 | -119.24811 | 37811 ft | 447 kts | 299° |
| 2026-05-04 21:33 | 38.47729 | -119.31350 | 37840 ft | 452 kts | 300° |
| 2026-05-04 21:34 | 38.51333 | -119.37958 | 37860 ft | 454 kts | 300° |
| 2026-05-04 21:34 | 38.54926 | -119.44554 | 37834 ft | 457 kts | 301° |
| 2026-05-04 21:34 | 38.56754 | -119.47918 | 37259 ft | 464 kts | 301° |
| 2026-05-04 21:35 | 38.58591 | -119.51298 | 36684 ft | 461 kts | 302° |
| 2026-05-04 21:35 | 38.60418 | -119.54662 | 36013 ft | 460 kts | 303° |
| 2026-05-04 21:35 | 38.62244 | -119.58027 | 35276 ft | 461 kts | 303° |
| 2026-05-04 21:35 | 38.64075 | -119.61407 | 34516 ft | 464 kts | 304° |
| 2026-05-04 21:36 | 38.65919 | -119.64815 | 33633 ft | 467 kts | 306° |
| 2026-05-04 21:36 | 38.67767 | -119.68233 | 32931 ft | 465 kts | 306° |
| 2026-05-04 21:36 | 38.69596 | -119.71620 | 32338 ft | 461 kts | 306° |
| 2026-05-04 21:36 | 38.71386 | -119.74940 | 31742 ft | 457 kts | 307° |
| 2026-05-04 21:37 | 38.73181 | -119.78271 | 31175 ft | 452 kts | 307° |
| 2026-05-04 21:37 | 38.74961 | -119.81579 | 30614 ft | 450 kts | 307° |
| 2026-05-04 21:37 | 38.76731 | -119.84871 | 30071 ft | 448 kts | 308° |
| 2026-05-04 21:37 | 38.78493 | -119.88152 | 29380 ft | 445 kts | 308° |
| 2026-05-04 21:38 | 38.80238 | -119.91391 | 28772 ft | 439 kts | 308° |
| 2026-05-04 21:38 | 38.81959 | -119.94602 | 28195 ft | 435 kts | 308° |
| 2026-05-04 21:38 | 38.83662 | -119.97782 | 27581 ft | 430 kts | 309° |
| 2026-05-04 21:38 | 38.85345 | -120.00932 | 26939 ft | 425 kts | 308° |
| 2026-05-04 21:39 | 38.86989 | -120.04011 | 26356 ft | 422 kts | 309° |
| 2026-05-04 21:39 | 38.88643 | -120.07110 | 25811 ft | 419 kts | 309° |
| 2026-05-04 21:39 | 38.90286 | -120.10191 | 25236 ft | 418 kts | 309° |
| 2026-05-04 21:39 | 38.91926 | -120.13265 | 24636 ft | 416 kts | 309° |
| 2026-05-04 21:40 | 38.93555 | -120.16325 | 24047 ft | 414 kts | 309° |
| 2026-05-04 21:40 | 38.95175 | -120.19369 | 23480 ft | 412 kts | 309° |
| 2026-05-04 21:40 | 38.96787 | -120.22400 | 22853 ft | 410 kts | 309° |
| 2026-05-04 21:40 | 38.98392 | -120.25422 | 22255 ft | 408 kts | 309° |
| 2026-05-04 21:41 | 38.99765 | -120.28553 | 21693 ft | 412 kts | 294° |
| 2026-05-04 21:41 | 39.00514 | -120.32107 | 21206 ft | 410 kts | 287° |
| 2026-05-04 21:41 | 39.01161 | -120.35678 | 20617 ft | 409 kts | 286° |
| 2026-05-04 21:41 | 39.01800 | -120.39229 | 20047 ft | 407 kts | 286° |
| 2026-05-04 21:42 | 39.02447 | -120.42760 | 19523 ft | 404 kts | 287° |
| 2026-05-04 21:42 | 39.03102 | -120.46264 | 18990 ft | 402 kts | 287° |
| 2026-05-04 21:42 | 39.03762 | -120.49742 | 18459 ft | 400 kts | 287° |
| 2026-05-04 21:42 | 39.04423 | -120.53203 | 17878 ft | 398 kts | 287° |
| 2026-05-04 21:43 | 39.05081 | -120.56646 | 17305 ft | 395 kts | 287° |
| 2026-05-04 21:43 | 39.05724 | -120.60016 | 16731 ft | 392 kts | 287° |
| 2026-05-04 21:43 | 39.06368 | -120.63401 | 16197 ft | 388 kts | 287° |
| 2026-05-04 21:43 | 39.06994 | -120.66759 | 15682 ft | 384 kts | 284° |
| 2026-05-04 21:44 | 39.07083 | -120.70193 | 15144 ft | 386 kts | 262° |
| 2026-05-04 21:44 | 39.06392 | -120.73514 | 14668 ft | 383 kts | 252° |
| 2026-05-04 21:44 | 39.05538 | -120.76751 | 14133 ft | 381 kts | 251° |
| 2026-05-04 21:44 | 39.04663 | -120.79947 | 13594 ft | 378 kts | 250° |
| 2026-05-04 21:45 | 39.03800 | -120.83119 | 13032 ft | 373 kts | 251° |
| 2026-05-04 21:45 | 39.02971 | -120.86210 | 12502 ft | 368 kts | 251° |
| 2026-05-04 21:45 | 39.02153 | -120.89301 | 12001 ft | 362 kts | 251° |
| 2026-05-04 21:45 | 39.01355 | -120.92342 | 11496 ft | 356 kts | 251° |
| 2026-05-04 21:46 | 39.00571 | -120.95338 | 11096 ft | 351 kts | 251° |
| 2026-05-04 21:46 | 38.99791 | -120.98301 | 10658 ft | 349 kts | 251° |
| 2026-05-04 21:46 | 38.99030 | -121.01256 | 10177 ft | 348 kts | 251° |
| 2026-05-04 21:46 | 38.98256 | -121.04180 | 9911 ft | 339 kts | 251° |
| 2026-05-04 21:47 | 38.97518 | -121.06974 | 9872 ft | 322 kts | 251° |
| 2026-05-04 21:47 | 38.96825 | -121.09616 | 9716 ft | 302 kts | 251° |
| 2026-05-04 21:47 | 38.96181 | -121.12061 | 9434 ft | 286 kts | 251° |
| 2026-05-04 21:47 | 38.95550 | -121.14452 | 8905 ft | 281 kts | 251° |
| 2026-05-04 21:48 | 38.94926 | -121.16815 | 8331 ft | 277 kts | 251° |
| 2026-05-04 21:48 | 38.94310 | -121.19146 | 7820 ft | 274 kts | 252° |
| 2026-05-04 21:48 | 38.93702 | -121.21443 | 7285 ft | 270 kts | 252° |
| 2026-05-04 21:48 | 38.93102 | -121.23707 | 6767 ft | 266 kts | 252° |
| 2026-05-04 21:49 | 38.92512 | -121.25935 | 6221 ft | 262 kts | 252° |
| 2026-05-04 21:49 | 38.91929 | -121.28134 | 5758 ft | 257 kts | 252° |
| 2026-05-04 21:49 | 38.91358 | -121.30288 | 5398 ft | 254 kts | 252° |
| 2026-05-04 21:49 | 38.90797 | -121.32402 | 5048 ft | 253 kts | 251° |
| 2026-05-04 21:50 | 38.90231 | -121.34536 | 4675 ft | 252 kts | 251° |
| 2026-05-04 21:50 | 38.89667 | -121.36652 | 4308 ft | 249 kts | 251° |
| 2026-05-04 21:50 | 38.89111 | -121.38739 | 4062 ft | 243 kts | 250° |
| 2026-05-04 21:50 | 38.88556 | -121.40727 | 4009 ft | 230 kts | 249° |
| 2026-05-04 21:51 | 38.88023 | -121.42601 | 3987 ft | 217 kts | 249° |
| 2026-05-04 21:51 | 38.87525 | -121.44348 | 4007 ft | 199 kts | 249° |
| 2026-05-04 21:51 | 38.87072 | -121.45941 | 3995 ft | 181 kts | 249° |
| 2026-05-04 21:51 | 38.86650 | -121.47424 | 4004 ft | 172 kts | 249° |
| 2026-05-04 21:52 | 38.86254 | -121.48812 | 3994 ft | 166 kts | 249° |
| 2026-05-04 21:52 | 38.85869 | -121.50166 | 3796 ft | 159 kts | 249° |
| 2026-05-04 21:52 | 38.85491 | -121.51493 | 3468 ft | 158 kts | 249° |
| 2026-05-04 21:52 | 38.85116 | -121.52811 | 3139 ft | 156 kts | 248° |
| 2026-05-04 21:53 | 38.84743 | -121.54119 | 2803 ft | 156 kts | 248° |
| 2026-05-04 21:53 | 38.84363 | -121.55448 | 2516 ft | 171 kts | 248° |
| 2026-05-04 21:53 | 38.83953 | -121.56885 | 2499 ft | 169 kts | 248° |
| 2026-05-04 21:53 | 38.83558 | -121.58270 | 2257 ft | 163 kts | 248° |
| 2026-05-04 21:54 | 38.83018 | -121.59483 | 1865 ft | 158 kts | 214° |
| 2026-05-04 21:54 | 38.82031 | -121.59760 | 1832 ft | 146 kts | 181° |
| 2026-05-04 21:54 | 38.81004 | -121.59870 | 1800 ft | 146 kts | 185° |
| 2026-05-04 21:54 | 38.80007 | -121.59939 | 1829 ft | 138 kts | 182° |
| 2026-05-04 21:55 | 38.79060 | -121.59967 | 1691 ft | 132 kts | 181° |
| 2026-05-04 21:55 | 38.78152 | -121.59984 | 1532 ft | 129 kts | 181° |
| 2026-05-04 21:55 | 38.77259 | -121.60000 | 1363 ft | 128 kts | 181° |
| 2026-05-04 21:55 | 38.76361 | -121.60015 | 1194 ft | 129 kts | 181° |
| 2026-05-04 21:56 | 38.75465 | -121.60030 | 1017 ft | 129 kts | 181° |
| 2026-05-04 21:56 | 38.74583 | -121.60045 | 838 ft | 129 kts | 181° |
| 2026-05-04 21:56 | 38.73683 | -121.60059 | 660 ft | 129 kts | 180° |
| 2026-05-04 21:56 | 38.72781 | -121.60074 | 476 ft | 130 kts | 180° |
| 2026-05-04 21:57 | 38.71881 | -121.60090 | 289 ft | 128 kts | 179° |
| 2026-05-04 21:57 | 38.70981 | -121.60106 | 124 ft | 131 kts | 179° |
| 2026-05-04 21:57 | 38.70088 | -121.60119 | 27 ft | 119 kts | 181° |
| 2026-05-04 21:57 | 38.69409 | -121.60131 | 21 ft | 76 kts | 181° |
| 2026-05-04 21:58 | 38.69091 | -121.60130 | 25 ft | 14 kts | 161° |
| 2026-05-04 21:58 | 38.69060 | -121.60028 | 23 ft | 13 kts | 90° |
| 2026-05-04 21:58 | 38.69058 | -121.59922 | 22 ft | 10 kts | 91° |
| 2026-05-04 21:58 | 38.69100 | -121.59874 | 24 ft | 9 kts | 0° |
| 2026-05-04 21:59 | 38.69163 | -121.59873 | 22 ft | 9 kts | 1° |
| 2026-05-04 21:59 | 38.69225 | -121.59871 | 24 ft | 9 kts | 1° |
| 2026-05-04 21:59 | 38.69285 | -121.59871 | 22 ft | 8 kts | 0° |
| 2026-05-04 21:59 | 38.69343 | -121.59870 | 23 ft | 8 kts | 0° |
| 2026-05-04 22:00 | 38.69401 | -121.59869 | 23 ft | 9 kts | 1° |
| 2026-05-04 22:00 | 38.69478 | -121.59868 | 24 ft | 13 kts | 0° |
| 2026-05-04 22:00 | 38.69573 | -121.59867 | 22 ft | 14 kts | 1° |
| 2026-05-04 22:00 | 38.69668 | -121.59865 | 22 ft | 13 kts | 2° |
| 2026-05-04 22:01 | 38.69701 | -121.59770 | 22 ft | 13 kts | 90° |
| 2026-05-04 22:01 | 38.69700 | -121.59657 | 22 ft | 13 kts | 90° |
| 2026-05-04 22:01 | 38.69688 | -121.59554 | 25 ft | 8 kts | 116° |
| 2026-05-04 22:01 | 38.69680 | -121.59547 | 23 ft | 1 kts | 153° |
| 2026-05-04 22:02 | 38.69663 | -121.59538 | 22 ft | 5 kts | 155° |
| 2026-05-04 22:02 | 38.69629 | -121.59519 | 24 ft | 1 kts | 156° |